Прогноз погоды TAF Абакан

Прогноз погоды TAF: 
TAF UNAA 271054Z 2712/2812 20005G10MPS 9999 BKN020CB TEMPO 2712/2718 5000 -SHSN TEMPO 2718/2809 26008G16MPS
Аэропорт подробнее: 
Регион: